createdAt,value
2017-06-08T00:01:40.442Z,99291
2017-06-08T00:04:09.254Z,99282
2017-06-08T00:06:37.376Z,99285
2017-06-08T00:09:05.444Z,99294
2017-06-08T00:11:33.516Z,99287
2017-06-08T00:14:01.594Z,99289
2017-06-08T00:16:29.667Z,99300
2017-06-08T00:18:57.730Z,99304
2017-06-08T00:21:26.323Z,99308
2017-06-08T00:23:54.408Z,99317
2017-06-08T00:26:23.291Z,99315
2017-06-08T00:28:51.450Z,99315
2017-06-08T00:31:19.628Z,99299
2017-06-08T00:33:47.703Z,99304
2017-06-08T00:36:15.771Z,99310
2017-06-08T00:38:43.854Z,99305
2017-06-08T00:41:11.917Z,99309
2017-06-08T00:43:39.991Z,99313
2017-06-08T00:46:08.062Z,99298
2017-06-08T00:48:36.131Z,99304
2017-06-08T00:51:04.279Z,99314
2017-06-08T00:53:32.348Z,99318
2017-06-08T00:56:00.435Z,99315
2017-06-08T00:58:28.511Z,99320
2017-06-08T01:00:56.599Z,99322
2017-06-08T01:03:24.671Z,99326
2017-06-08T01:05:52.743Z,99312
2017-06-08T01:08:20.819Z,99330
2017-06-08T01:10:48.991Z,99323
2017-06-08T01:13:17.067Z,99315
2017-06-08T01:15:45.239Z,99310
2017-06-08T01:18:13.332Z,99309
2017-06-08T01:20:42.167Z,99304
2017-06-08T01:23:10.232Z,99305
2017-06-08T01:25:38.343Z,99304
2017-06-08T01:28:06.423Z,99290
2017-06-08T01:30:34.575Z,99295
2017-06-08T01:33:03.044Z,99290
2017-06-08T01:35:31.111Z,99296
2017-06-08T01:37:59.183Z,99289
2017-06-08T01:40:27.263Z,99296
2017-06-08T01:42:55.363Z,99295
2017-06-08T01:45:23.452Z,99292
2017-06-08T01:47:51.890Z,99295
2017-06-08T01:50:19.991Z,99294
2017-06-08T01:52:48.088Z,99305
2017-06-08T01:55:17.027Z,99295
2017-06-08T01:57:45.114Z,99310
2017-06-08T02:00:13.193Z,99300
2017-06-08T02:02:41.359Z,99300
2017-06-08T02:05:09.447Z,99299
2017-06-08T02:07:37.623Z,99295
2017-06-08T02:10:05.695Z,99289
2017-06-08T02:12:33.871Z,99285
2017-06-08T02:15:01.943Z,99292
2017-06-08T02:17:30.015Z,99305
2017-06-08T02:19:58.092Z,99307
2017-06-08T02:22:26.159Z,99312
2017-06-08T02:24:54.230Z,99317
2017-06-08T02:27:22.339Z,99308
2017-06-08T02:29:51.404Z,99314
2017-06-08T02:32:19.471Z,99306
2017-06-08T02:34:47.567Z,99311
2017-06-08T02:37:16.439Z,99316
2017-06-08T02:39:44.511Z,99321
2017-06-08T02:42:12.599Z,99319
2017-06-08T02:44:41.537Z,99326
2017-06-08T02:47:09.607Z,99322
2017-06-08T02:49:38.336Z,99330
2017-06-08T02:52:06.410Z,99328
2017-06-08T02:54:34.487Z,99313
2017-06-08T02:57:02.590Z,99315
2017-06-08T02:59:30.766Z,99320
2017-06-08T03:01:58.835Z,99312
2017-06-08T03:04:26.910Z,99315
2017-06-08T03:06:54.975Z,99315
2017-06-08T03:09:23.819Z,99312
2017-06-08T03:11:51.895Z,99309
2017-06-08T03:14:19.983Z,99309
2017-06-08T03:16:48.055Z,99306
2017-06-08T03:19:16.127Z,99311
2017-06-08T03:21:44.211Z,99315
2017-06-08T03:24:12.291Z,99318
2017-06-08T03:26:41.134Z,99322
2017-06-08T03:29:09.221Z,99316
2017-06-08T03:31:37.300Z,99322
2017-06-08T03:34:05.363Z,99319
2017-06-08T03:36:33.452Z,99324
2017-06-08T03:39:01.524Z,99317
2017-06-08T03:41:29.599Z,99319
2017-06-08T03:43:57.678Z,99326
2017-06-08T03:46:25.751Z,99330
2017-06-08T03:48:53.827Z,99338
2017-06-08T03:51:22.668Z,99336
2017-06-08T03:53:50.811Z,99341
2017-06-08T03:56:18.955Z,99343
2017-06-08T03:58:47.127Z,99342
2017-06-08T04:01:15.199Z,99344
2017-06-08T04:03:43.287Z,99349
2017-06-08T04:06:11.354Z,99345
2017-06-08T04:08:39.531Z,99347
2017-06-08T04:11:07.602Z,99345
2017-06-08T04:13:36.443Z,99345
2017-06-08T04:16:04.514Z,99345
2017-06-08T04:18:32.587Z,99346
2017-06-08T04:21:00.687Z,99355
2017-06-08T04:23:28.755Z,99351
2017-06-08T04:25:56.827Z,99347
2017-06-08T04:28:25.120Z,99348
2017-06-08T04:30:53.191Z,99347
2017-06-08T04:33:21.267Z,99342
2017-06-08T04:35:49.443Z,99343
2017-06-08T04:38:17.531Z,99340
2017-06-08T04:40:46.403Z,99354
2017-06-08T04:43:14.474Z,99348
2017-06-08T04:45:42.555Z,99347
2017-06-08T04:48:10.711Z,99341
2017-06-08T04:50:38.782Z,99343
2017-06-08T04:53:06.902Z,99333
2017-06-08T04:55:35.759Z,99341
2017-06-08T04:58:03.831Z,99337
2017-06-08T05:00:31.922Z,99339
2017-06-08T05:03:00.760Z,99338
2017-06-08T05:05:28.887Z,99343
2017-06-08T05:07:56.955Z,99346
2017-06-08T05:10:25.685Z,99338
2017-06-08T05:12:53.767Z,99347
2017-06-08T05:15:21.830Z,99342
2017-06-08T05:17:49.947Z,99346
2017-06-08T05:20:18.124Z,99342
2017-06-08T05:22:46.195Z,99346
2017-06-08T05:25:14.267Z,99341
2017-06-08T05:27:42.339Z,99341
2017-06-08T05:30:10.414Z,99340
2017-06-08T05:32:38.487Z,99340
2017-06-08T05:35:06.567Z,99343
2017-06-08T05:37:34.736Z,99341
2017-06-08T05:40:02.831Z,99338
2017-06-08T05:42:31.672Z,99330
2017-06-08T05:44:59.734Z,99340
2017-06-08T05:47:27.807Z,99337
2017-06-08T05:49:55.894Z,99339
2017-06-08T05:52:23.975Z,99336
2017-06-08T05:54:52.054Z,99329
2017-06-08T05:57:20.154Z,99326
2017-06-08T05:59:49.024Z,99339
2017-06-08T06:02:17.121Z,99342
2017-06-08T06:04:45.947Z,99339
2017-06-08T06:07:14.020Z,99342
2017-06-08T06:09:42.091Z,99337
2017-06-08T06:12:10.203Z,99333
2017-06-08T06:14:38.283Z,99331
2017-06-08T06:17:06.451Z,99329
2017-06-08T06:19:34.523Z,99326
2017-06-08T06:22:02.599Z,99324
2017-06-08T06:24:30.683Z,99329
2017-06-08T06:26:59.518Z,99329
2017-06-08T06:29:27.594Z,99329
2017-06-08T06:31:55.680Z,99316
2017-06-08T06:34:23.751Z,99337
2017-06-08T06:36:51.831Z,99325
2017-06-08T06:39:19.918Z,99329
2017-06-08T06:41:47.997Z,99329
2017-06-08T06:44:16.940Z,99321
2017-06-08T06:46:45.023Z,99319
2017-06-08T06:49:13.093Z,99321
2017-06-08T06:51:41.202Z,99324
2017-06-08T06:54:09.276Z,99321
2017-06-08T06:56:37.468Z,99330
2017-06-08T06:59:06.307Z,99333
2017-06-08T07:01:34.415Z,99333
2017-06-08T07:04:02.491Z,99324
2017-06-08T07:06:30.554Z,99328
2017-06-08T07:08:58.642Z,99326
2017-06-08T07:11:26.941Z,99324
2017-06-08T07:13:55.777Z,99317
2017-06-08T07:16:23.876Z,99315
2017-06-08T07:18:51.943Z,99322
2017-06-08T07:21:20.119Z,99322
2017-06-08T07:23:48.203Z,99322
2017-06-08T07:26:16.275Z,99315
2017-06-08T07:28:44.346Z,99317
2017-06-08T07:31:12.431Z,99306
2017-06-08T07:33:41.263Z,99315
2017-06-08T07:36:09.360Z,99312
2017-06-08T07:38:37.430Z,99313
2017-06-08T07:41:05.503Z,99293
2017-06-08T07:43:33.579Z,99304
2017-06-08T07:46:01.646Z,99305
2017-06-08T07:48:29.719Z,99286
2017-06-08T07:50:57.833Z,99295
2017-06-08T07:53:26.699Z,99290
2017-06-08T07:55:54.770Z,99289
2017-06-08T07:58:22.845Z,99293
2017-06-08T08:01:08.863Z,99285
2017-06-08T08:03:37.695Z,99283
2017-06-08T08:06:05.767Z,99279
2017-06-08T08:08:33.835Z,99281
2017-06-08T08:11:01.914Z,99280
2017-06-08T08:13:29.984Z,99271
2017-06-08T08:15:58.075Z,99262
2017-06-08T08:18:26.164Z,99265
2017-06-08T08:20:54.235Z,99265
2017-06-08T08:23:22.407Z,99263
2017-06-08T08:25:50.479Z,99262
2017-06-08T08:28:18.555Z,99273
2017-06-08T08:30:46.627Z,99267
2017-06-08T08:33:14.867Z,99267
2017-06-08T08:35:42.977Z,99266
2017-06-08T08:38:11.047Z,99266
2017-06-08T08:40:39.147Z,99254
2017-06-08T08:43:07.227Z,99271
2017-06-08T08:45:36.074Z,99263
2017-06-08T08:48:04.313Z,99256
2017-06-08T08:50:32.379Z,99260
2017-06-08T08:53:00.534Z,99259
2017-06-08T08:55:29.395Z,99264
2017-06-08T08:57:57.471Z,99263
2017-06-08T09:00:25.547Z,99258
2017-06-08T09:02:53.631Z,99257
2017-06-08T09:05:21.707Z,99253
2017-06-08T09:07:50.555Z,99255
2017-06-08T09:10:18.628Z,99261
2017-06-08T09:12:46.758Z,99256
2017-06-08T09:15:14.827Z,99254
2017-06-08T09:17:43.688Z,99251
2017-06-08T09:20:11.813Z,99240
2017-06-08T09:22:39.870Z,99245
2017-06-08T09:25:08.014Z,99245
2017-06-08T09:27:36.857Z,99244
2017-06-08T09:30:04.971Z,99244
2017-06-08T09:32:33.042Z,99243
2017-06-08T09:35:01.246Z,99253
2017-06-08T09:37:30.079Z,99248
2017-06-08T09:39:58.147Z,99250
2017-06-08T09:42:26.218Z,99250
2017-06-08T09:44:54.287Z,99249
2017-06-08T09:47:22.363Z,99241
2017-06-08T09:49:50.436Z,99250
2017-06-08T09:52:18.547Z,99240
2017-06-08T09:54:46.623Z,99245
2017-06-08T09:57:14.791Z,99244
2017-06-08T09:59:42.866Z,99248
2017-06-08T10:02:10.936Z,99253
2017-06-08T10:04:39.010Z,99254
2017-06-08T10:07:07.083Z,99241
2017-06-08T10:09:35.167Z,99248
2017-06-08T10:12:04.015Z,99249
2017-06-08T10:14:32.084Z,99239
2017-06-08T10:17:00.152Z,99248
2017-06-08T10:19:28.288Z,99253
2017-06-08T10:21:57.155Z,99240
2017-06-08T10:24:25.227Z,99242
2017-06-08T10:26:53.311Z,99239
2017-06-08T10:29:21.471Z,99233
2017-06-08T10:31:49.648Z,99232
2017-06-08T10:34:17.718Z,99234
2017-06-08T10:36:45.803Z,99231
2017-06-08T10:39:14.643Z,99231
2017-06-08T10:41:42.709Z,99228
2017-06-08T10:44:10.827Z,99227
2017-06-08T10:46:38.903Z,99237
2017-06-08T10:49:07.072Z,99238
2017-06-08T10:51:35.147Z,99240
2017-06-08T10:54:03.231Z,99232
2017-06-08T10:56:32.451Z,99234
2017-06-08T10:59:00.963Z,99233
2017-06-08T11:01:29.182Z,99223
2017-06-08T11:03:57.577Z,99221
2017-06-08T11:06:26.544Z,99224
2017-06-08T11:08:54.860Z,99213
2017-06-08T11:11:23.807Z,99213
2017-06-08T11:13:52.679Z,99214
2017-06-08T11:16:21.028Z,99212
2017-06-08T11:18:49.227Z,99205
2017-06-08T11:21:17.850Z,99216
2017-06-08T11:23:46.236Z,99206
2017-06-08T11:26:14.407Z,99207
2017-06-08T11:28:42.527Z,99199
2017-06-08T11:31:10.775Z,99200
2017-06-08T11:33:39.299Z,99195
2017-06-08T11:36:07.476Z,99200
2017-06-08T11:38:36.053Z,99204
2017-06-08T11:41:04.338Z,99198
2017-06-08T11:43:32.931Z,99188
2017-06-08T11:46:01.147Z,99194
2017-06-08T11:48:29.274Z,99187
2017-06-08T11:50:58.499Z,99180
2017-06-08T11:53:27.158Z,99186
2017-06-08T11:55:55.867Z,99187
2017-06-08T11:58:24.058Z,99184
2017-06-08T12:00:52.195Z,99186
2017-06-08T12:03:20.675Z,99183
2017-06-08T12:05:48.952Z,99173
2017-06-08T12:08:17.061Z,99172
2017-06-08T12:10:45.711Z,99167
2017-06-08T12:13:13.799Z,99165
2017-06-08T12:15:41.911Z,99173
2017-06-08T12:18:10.071Z,99169
2017-06-08T12:20:38.156Z,99167
2017-06-08T12:23:06.544Z,99168
2017-06-08T12:25:35.375Z,99166
2017-06-08T12:28:03.459Z,99162
2017-06-08T12:30:31.523Z,99166
2017-06-08T12:32:59.603Z,99162
2017-06-08T12:35:27.667Z,99150
2017-06-08T12:37:55.748Z,99154
2017-06-08T12:40:23.823Z,99145
2017-06-08T12:42:51.906Z,99144
2017-06-08T12:45:20.020Z,99143
2017-06-08T12:47:48.867Z,99140
2017-06-08T12:50:16.940Z,99143
2017-06-08T12:52:45.033Z,99133
2017-06-08T12:55:13.103Z,99132
2017-06-08T12:57:41.175Z,99123
2017-06-08T13:00:09.348Z,99124
2017-06-08T13:02:37.419Z,99111
2017-06-08T13:05:05.516Z,99109
2017-06-08T13:07:34.483Z,99109
2017-06-08T13:10:02.662Z,99110
2017-06-08T13:12:30.731Z,99106
2017-06-08T13:14:58.802Z,99108
2017-06-08T13:17:26.879Z,99103
2017-06-08T13:19:54.968Z,99110
2017-06-08T13:22:23.803Z,99111
2017-06-08T13:24:51.880Z,99105
2017-06-08T13:27:19.988Z,99103
2017-06-08T13:29:48.066Z,99100
2017-06-08T13:32:16.235Z,99091
2017-06-08T13:34:44.306Z,99098
2017-06-08T13:37:12.383Z,99101
2017-06-08T13:39:40.450Z,99094
2017-06-08T13:42:08.527Z,99094
2017-06-08T13:44:36.596Z,99090
2017-06-08T13:47:04.706Z,99084
2017-06-08T13:49:32.842Z,99080
2017-06-08T13:52:00.915Z,99081
2017-06-08T13:54:29.003Z,99076
2017-06-08T13:56:57.076Z,99081
2017-06-08T13:59:25.238Z,99068
2017-06-08T14:01:53.314Z,99075
2017-06-08T14:04:21.391Z,99067
2017-06-08T14:06:49.454Z,99067
2017-06-08T14:09:17.542Z,99058
2017-06-08T14:11:46.380Z,99052
2017-06-08T14:14:14.527Z,99059
2017-06-08T14:16:42.602Z,99056
2017-06-08T14:19:10.735Z,99063
2017-06-08T14:21:38.818Z,99055
2017-06-08T14:24:06.983Z,99042
2017-06-08T14:26:35.118Z,99053
2017-06-08T14:29:03.232Z,99037
2017-06-08T14:31:31.407Z,99034
2017-06-08T14:33:59.475Z,99032
2017-06-08T14:36:27.572Z,99025
2017-06-08T14:38:55.800Z,99030
2017-06-08T14:41:23.899Z,99024
2017-06-08T14:43:51.987Z,99025
2017-06-08T14:46:20.579Z,99023
2017-06-08T14:48:49.432Z,99014
2017-06-08T14:51:17.524Z,99017
2017-06-08T14:53:45.603Z,99019
2017-06-08T14:56:13.663Z,99014
2017-06-08T14:58:41.743Z,99004
2017-06-08T15:01:09.815Z,99016
2017-06-08T15:03:38.000Z,99007
2017-06-08T15:06:06.155Z,99001
2017-06-08T15:08:34.231Z,98997
2017-06-08T15:11:02.306Z,98993
2017-06-08T15:13:30.374Z,98983
2017-06-08T15:15:58.458Z,98989
2017-06-08T15:18:26.522Z,98985
2017-06-08T15:20:54.695Z,98986
2017-06-08T15:23:22.767Z,98975
2017-06-08T15:25:50.876Z,98979
2017-06-08T15:28:19.589Z,98972
2017-06-08T15:30:47.699Z,98978
2017-06-08T15:33:15.788Z,98974
2017-06-08T15:35:43.952Z,98969
2017-06-08T15:38:12.022Z,98968
2017-06-08T15:40:40.156Z,98968
2017-06-08T15:43:08.267Z,98971
2017-06-08T15:45:36.356Z,98964
2017-06-08T15:48:04.443Z,98960
2017-06-08T15:50:32.586Z,98958
2017-06-08T15:53:00.663Z,98957
2017-06-08T15:55:28.743Z,98952
2017-06-08T15:57:56.907Z,98950
2017-06-08T16:00:24.979Z,98950
2017-06-08T16:02:53.051Z,98949
2017-06-08T16:05:21.531Z,98957
2017-06-08T16:07:49.612Z,98955
2017-06-08T16:10:17.711Z,98955
2017-06-08T16:12:45.855Z,98953
2017-06-08T16:15:13.939Z,98946
2017-06-08T16:17:42.102Z,98942
2017-06-08T16:20:10.483Z,98940
2017-06-08T16:22:39.471Z,98943
2017-06-08T16:25:07.544Z,98943
2017-06-08T16:27:35.632Z,98940
2017-06-08T16:30:03.703Z,98935
2017-06-08T16:32:31.776Z,98945
2017-06-08T16:35:00.655Z,98939
2017-06-08T16:37:28.740Z,98936
2017-06-08T16:39:56.856Z,98929
2017-06-08T16:42:24.956Z,98936
2017-06-08T16:44:53.019Z,98933
2017-06-08T16:47:21.104Z,98938
2017-06-08T16:49:49.198Z,98943
2017-06-08T16:52:17.442Z,98943
2017-06-08T16:54:45.539Z,98939
2017-06-08T16:57:13.611Z,98942
2017-06-08T16:59:41.706Z,98941
2017-06-08T17:02:10.535Z,98931
2017-06-08T17:04:38.611Z,98945
2017-06-08T17:07:06.724Z,98937
2017-06-08T17:09:34.795Z,98939
2017-06-08T17:12:02.875Z,98933
2017-06-08T17:14:30.943Z,98937
2017-06-08T17:16:59.039Z,98944
2017-06-08T17:19:27.186Z,98928
2017-06-08T17:21:55.283Z,98932
2017-06-08T17:24:24.116Z,98927
2017-06-08T17:26:52.183Z,98940
2017-06-08T17:29:20.259Z,98928
2017-06-08T17:31:48.331Z,98927
2017-06-08T17:34:16.407Z,98931
2017-06-08T17:36:44.533Z,98926
2017-06-08T17:39:13.383Z,98928
2017-06-08T17:41:41.459Z,98924
2017-06-08T17:44:09.828Z,98928
2017-06-08T17:46:37.903Z,98925
2017-06-08T17:49:05.971Z,98920
2017-06-08T17:52:05.024Z,98921
2017-06-08T17:54:33.887Z,98918
2017-06-08T17:57:01.960Z,98918
2017-06-08T17:59:30.048Z,98921
2017-06-08T18:01:58.896Z,98919
2017-06-08T18:04:27.006Z,98910
2017-06-08T18:06:55.098Z,98911
2017-06-08T18:09:24.227Z,98913
2017-06-08T18:11:52.319Z,98915
2017-06-08T18:14:20.391Z,98913
2017-06-08T18:16:48.471Z,98915
2017-06-08T18:19:16.543Z,98901
2017-06-08T18:21:44.623Z,98901
2017-06-08T18:24:12.704Z,98902
2017-06-08T18:26:40.791Z,98893
2017-06-08T18:29:09.631Z,98898
2017-06-08T18:31:37.715Z,98905
2017-06-08T18:34:05.921Z,98900
2017-06-08T18:36:33.999Z,98895
2017-06-08T18:39:02.073Z,98896
2017-06-08T18:41:30.915Z,98898
2017-06-08T18:43:58.995Z,98890
2017-06-08T18:46:27.084Z,98889
2017-06-08T18:48:55.167Z,98891
2017-06-08T18:51:23.243Z,98895
2017-06-08T18:53:51.323Z,98887
2017-06-08T18:56:19.486Z,98885
2017-06-08T18:58:47.563Z,98893
2017-06-08T19:01:15.907Z,98893
2017-06-08T19:03:43.979Z,98893
2017-06-08T19:06:12.083Z,98891
2017-06-08T19:08:40.155Z,98877
2017-06-08T19:11:08.243Z,98883
2017-06-08T19:13:36.330Z,98882
2017-06-08T19:16:04.411Z,98880
2017-06-08T19:18:32.548Z,98883
2017-06-08T19:21:01.451Z,98890
2017-06-08T19:23:29.587Z,98892
2017-06-08T19:25:57.658Z,98896
2017-06-08T19:28:25.742Z,98898
2017-06-08T19:30:53.815Z,98904
2017-06-08T19:33:21.907Z,98912
2017-06-08T19:35:49.979Z,98910
2017-06-08T19:38:18.050Z,98911
2017-06-08T19:40:46.134Z,98910
2017-06-08T19:43:14.989Z,98916
2017-06-08T19:45:43.076Z,98919
2017-06-08T19:48:11.139Z,98912
2017-06-08T19:50:39.227Z,98918
2017-06-08T19:53:07.391Z,98913
2017-06-08T19:55:35.471Z,98904
2017-06-08T19:58:03.547Z,98912
2017-06-08T20:00:31.927Z,98909
2017-06-08T20:03:00.067Z,98914
2017-06-08T20:05:28.149Z,98917
2017-06-08T20:07:56.247Z,98918
2017-06-08T20:10:24.320Z,98920
2017-06-08T20:12:52.423Z,98915
2017-06-08T20:15:21.260Z,98910
2017-06-08T20:17:49.384Z,98913
2017-06-08T20:20:18.214Z,98919
2017-06-08T20:22:46.322Z,98917
2017-06-08T20:25:14.395Z,98921
2017-06-08T20:27:42.463Z,98920
2017-06-08T20:30:10.591Z,98927
2017-06-08T20:32:39.478Z,98924
2017-06-08T20:35:07.772Z,98932
2017-06-08T20:37:35.844Z,98932
2017-06-08T20:40:03.943Z,98925
2017-06-08T20:42:32.008Z,98922
2017-06-08T20:45:00.079Z,98920
2017-06-08T20:47:28.272Z,98927
2017-06-08T20:49:56.343Z,98921
2017-06-08T20:52:24.423Z,98926
2017-06-08T20:54:52.487Z,98926
2017-06-08T20:57:20.571Z,98922
2017-06-08T20:59:48.635Z,98917
2017-06-08T21:02:16.726Z,98917
2017-06-08T21:04:45.571Z,98916
2017-06-08T21:07:13.640Z,98915
2017-06-08T21:09:41.715Z,98905
2017-06-08T21:12:09.815Z,98911
2017-06-08T21:14:37.900Z,98926
2017-06-08T21:17:06.743Z,98912
2017-06-08T21:19:34.840Z,98911
2017-06-08T21:22:02.907Z,98906
2017-06-08T21:24:30.984Z,98902
2017-06-08T21:26:59.168Z,98905
2017-06-08T21:29:27.239Z,98896
2017-06-08T21:31:55.324Z,98896
2017-06-08T21:34:23.395Z,98896
2017-06-08T21:36:51.467Z,98895
2017-06-08T21:39:19.543Z,98894
2017-06-08T21:41:47.614Z,98887
2017-06-08T21:44:16.455Z,98892
2017-06-08T21:46:44.524Z,98892
2017-06-08T21:49:12.631Z,98904
2017-06-08T21:51:40.694Z,98899
2017-06-08T21:54:08.819Z,98901
2017-06-08T21:56:36.891Z,98897
2017-06-08T21:59:04.963Z,98899
2017-06-08T22:01:33.039Z,98905
2017-06-08T22:04:02.113Z,98899
2017-06-08T22:06:30.947Z,98896
2017-06-08T22:08:59.018Z,98896
2017-06-08T22:11:27.108Z,98892
2017-06-08T22:13:55.191Z,98884
2017-06-08T22:16:23.269Z,98886
2017-06-08T22:18:51.353Z,98892
2017-06-08T22:21:19.427Z,98891
2017-06-08T22:23:47.497Z,98885
2017-06-08T22:26:15.599Z,98881
2017-06-08T22:28:43.670Z,98884
2017-06-08T22:31:12.508Z,98877
2017-06-08T22:33:40.587Z,98880
2017-06-08T22:36:08.660Z,98878
2017-06-08T22:38:36.731Z,98875
2017-06-08T22:41:04.802Z,98870
2017-06-08T22:43:32.995Z,98874
2017-06-08T22:46:01.082Z,98865
2017-06-08T22:48:29.952Z,98870
2017-06-08T22:50:58.015Z,98874
2017-06-08T22:53:26.087Z,98873
2017-06-08T22:55:54.163Z,98871
2017-06-08T22:58:22.235Z,98876
2017-06-08T23:00:50.427Z,98864
2017-06-08T23:03:18.495Z,98877
2017-06-08T23:05:46.603Z,98860
2017-06-08T23:08:14.676Z,98871
2017-06-08T23:10:43.540Z,98865
2017-06-08T23:13:11.667Z,98853
2017-06-08T23:15:39.740Z,98851
2017-06-08T23:18:07.819Z,98854
2017-06-08T23:20:35.884Z,98848
2017-06-08T23:23:03.976Z,98855
2017-06-08T23:25:32.039Z,98856
2017-06-08T23:28:00.139Z,98861
2017-06-08T23:30:28.212Z,98844
2017-06-08T23:32:56.283Z,98842
2017-06-08T23:35:24.889Z,98846
2017-06-08T23:37:52.955Z,98840
2017-06-08T23:40:21.031Z,98831
2017-06-08T23:42:49.867Z,98842
2017-06-08T23:45:17.999Z,98833
2017-06-08T23:47:46.848Z,98837
2017-06-08T23:50:14.943Z,98827
2017-06-08T23:52:43.010Z,98821
2017-06-08T23:55:11.087Z,98818
2017-06-08T23:57:39.183Z,98817
